Time;durP1;ratioP1;P1;durP2;ratioP2;P2;SDS_P1;SDS_P2;PMS_P1;PMS_P2;Temp;Humidity;BMP_temperature;BMP_pressure;BME280_temperature;BME280_humidity;BME280_pressure;Samples;Min_cycle;Max_cycle;Signal;HPM_P1;HPM_P2
2021/11/03 00:01:21;;;;;;;32.78;22.93;;;;;;;8.12;85.12;94026.51;833488;71;32734;-85
2021/11/03 00:31:14;;;;;;;30.23;20.17;;;;;;;8.20;85.53;94047.55;828403;71;30500;-87
2021/11/03 00:46:16;;;;;;;31.87;22.00;;;;;;;8.18;85.48;94053.58;827114;71;32722;-86
2021/11/03 01:01:28;;;;;;;27.15;18.00;;;;;;;8.12;84.99;94067.02;800574;74;33138;-84
2021/11/03 01:16:30;;;;;;;24.20;16.90;;;;;;;7.93;84.82;94096.52;833775;71;32758;-86
2021/11/03 01:31:30;;;;;;;28.90;18.90;;;;;;;7.80;85.11;94099.26;833823;71;32808;-86
2021/11/03 02:16:39;;;;;;;;;;;;;;;;;;;;;
2021/11/03 02:31:53;;;;;;;;;;;;;;;;;;;;;
2021/11/03 03:31:26;;;;;;;26.05;19.30;;;;;;;6.63;88.50;94137.67;834560;71;32822;-86
2021/11/03 03:46:13;;;;;;;28.23;20.88;;;;;;;6.79;89.34;94221.26;827828;71;30285;-84
2021/11/03 04:01:13;;;;;;;27.30;18.25;;;;;;;7.07;90.39;94239.07;827608;71;31510;-82
2021/11/03 04:16:14;;;;;;;26.17;18.60;;;;;;;7.22;89.75;94246.80;827229;71;32777;-84
2021/11/03 04:31:17;;;;;;;29.45;20.65;;;;;;;7.35;90.00;94242.78;827435;71;32720;-83
2021/11/03 04:46:27;;;;;;;23.80;16.60;;;;;;;7.27;87.83;94272.84;828865;71;32751;-85
2021/11/03 05:01:55;;;;;;;28.80;20.80;;;;;;;6.98;87.80;94233.66;813150;72;32788;-84
2021/11/03 05:16:10;;;;;;;28.02;18.35;;;;;;;7.19;88.31;94274.19;827862;71;29806;-86
2021/11/03 05:31:19;;;;;;;30.82;20.48;;;;;;;7.38;88.47;94295.73;826445;71;32789;-74
2021/11/03 05:46:20;;;;;;;38.67;23.22;;;;;;;7.42;88.83;94311.90;833191;71;33517;-79
2021/11/03 06:01:33;;;;;;;38.60;22.95;;;;;;;7.44;88.56;94337.73;779023;75;33033;-79
2021/11/03 06:16:11;;;;;;;35.63;23.65;;;;;;;7.51;88.87;94341.34;823182;70;30774;-79
2021/11/03 06:31:12;;;;;;;34.70;22.13;;;;;;;7.53;88.52;94355.67;828484;71;31223;-80
2021/11/03 06:46:13;;;;;;;35.35;21.60;;;;;;;7.52;88.94;94363.27;818755;71;32757;-79
2021/11/03 07:01:21;;;;;;;34.98;24.07;;;;;;;7.56;89.09;94379.14;828812;71;31742;-81
2021/11/03 07:16:09;;;;;;;33.85;22.48;;;;;;;7.46;89.44;94383.13;833397;71;29174;-78
2021/11/03 07:31:10;;;;;;;36.45;23.75;;;;;;;7.74;89.29;94412.45;827426;71;29819;-79
2021/11/03 07:46:09;;;;;;;37.78;25.20;;;;;;;7.76;89.20;94435.69;833937;71;29250;-76
2021/11/03 08:01:10;;;;;;;41.05;25.15;;;;;;;8.13;89.94;94423.94;827525;71;28565;-78
2021/11/03 08:16:16;;;;;;;45.98;28.12;;;;;;;8.40;88.02;94407.25;826721;71;31724;-78
2021/11/03 08:31:09;;;;;;;46.28;29.67;;;;;;;8.63;87.98;94403.66;828905;71;28634;-81
2021/11/03 08:46:10;;;;;;;38.48;26.05;;;;;;;8.71;87.50;94406.97;827623;71;29324;-77
2021/11/03 09:16:29;;;;;;;49.08;31.48;;;;;;;;;;825651;71;32412;-79
2021/11/03 09:31:15;;;;;;;50.83;33.67;;;;;;;9.61;85.72;94383.13;833073;71;32204;-76
2021/11/03 09:46:32;;;;;;;50.65;33.50;;;;;;;10.25;84.54;94370.09;819844;71;28818;-76
2021/11/03 10:01:25;;;;;;;54.40;35.45;;;;;;;11.14;82.45;94348.77;822526;71;31889;-78
2021/11/03 10:16:20;;;;;;;52.80;36.08;;;;;;;12.73;79.66;94333.23;827323;71;28973;-76
2021/11/03 10:31:24;;;;;;;57.20;37.42;;;;;;;13.46;76.48;94305.64;821427;71;31535;-77
2021/11/03 10:46:20;;;;;;;54.63;37.88;;;;;;;14.14;73.70;94307.20;818423;71;28881;-77
2021/11/03 11:01:13;;;;;;;54.15;36.45;;;;;;;14.29;72.84;94305.37;827523;71;29702;-79
2021/11/03 11:16:30;;;;;;;60.00;36.50;;;;;;;14.40;72.49;94307.91;826687;71;32987;-76
2021/11/03 11:31:39;;;;;;;57.13;36.15;;;;;;;14.81;70.79;94280.09;816984;70;32753;-76
2021/11/03 11:46:25;;;;;;;58.10;41.98;;;;;;;16.79;70.13;94259.84;833452;71;32766;-80
2021/11/03 12:01:16;;;;;;;47.33;35.13;;;;;;;17.60;63.01;94256.50;834781;71;30303;-78
2021/11/03 12:16:32;;;;;;;63.05;42.13;;;;;;;16.91;63.04;94259.63;819211;71;32807;-76
2021/11/03 12:31:17;;;;;;;75.32;45.05;;;;;;;15.87;64.80;94249.70;834730;71;30139;-80
2021/11/03 12:46:13;;;;;;;73.62;47.93;;;;;;;15.55;67.29;94258.59;833510;71;29767;-78
2021/11/03 13:01:21;;;;;;;74.35;48.90;;;;;;;15.95;66.80;94286.66;827749;71;30266;-77
2021/11/03 13:16:36;;;;;;;64.27;40.78;;;;;;;15.92;69.50;94292.61;833351;71;32797;-77
2021/11/03 13:31:22;;;;;;;91.87;59.15;;;;;;;15.62;67.00;94268.87;833431;71;32704;-76
2021/11/03 13:46:25;;;;;;;94.30;58.40;;;;;;;15.16;67.88;94292.33;833163;71;33142;-77
2021/11/03 14:01:20;;;;;;;105.72;59.95;;;;;;;14.51;69.70;94296.44;827053;71;33188;-77
2021/11/03 14:16:21;;;;;;;115.30;61.90;;;;;;;13.84;71.96;94266.22;833239;71;32669;-79
2021/11/03 14:31:27;;;;;;;111.90;59.80;;;;;;;13.17;74.49;94262.20;827929;71;30079;-77
2021/11/03 14:46:30;;;;;;;105.25;60.65;;;;;;;13.60;80.36;94295.19;822484;71;32875;-78
2021/11/03 15:16:42;;;;;;;116.90;69.15;;;;;;;12.76;78.25;94304.97;827747;71;32765;-77
2021/11/03 15:31:17;;;;;;;129.78;69.50;;;;;;;12.20;81.14;94301.19;834149;71;33252;-77
2021/11/03 15:46:21;;;;;;;111.90;62.10;;;;;;;11.74;82.44;94325.41;827847;71;30345;-75
2021/11/03 16:01:17;;;;;;;113.60;62.05;;;;;;;11.53;83.11;94317.74;826793;71;33533;-77
2021/11/03 16:16:15;;;;;;;106.50;58.98;;;;;;;11.15;84.89;94316.20;826685;71;32693;-78
2021/11/03 16:46:11;;;;;;;111.83;64.00;;;;;;;10.71;86.01;94304.48;829105;71;29895;-84
2021/11/03 17:31:10;;;;;;;149.93;82.47;;;;;;;10.89;86.88;94359.77;819574;71;29373;-87
2021/11/03 17:46:21;;;;;;;138.18;86.25;;;;;;;10.79;87.15;94381.22;821638;71;33147;-84
2021/11/03 18:01:28;;;;;;;118.28;75.30;;;;;;;10.38;86.60;94294.61;829243;71;32843;-89
2021/11/03 19:46:35;;;;;;;90.90;53.17;;;;;;;10.20;85.05;94382.77;827222;71;33417;-85
